createdAt,value
2023-02-21T00:01:23.789Z,10.54
2023-02-21T00:04:14.210Z,10.50
2023-02-21T00:07:06.159Z,10.50
2023-02-21T00:09:58.775Z,10.50
2023-02-21T00:12:49.276Z,10.50
2023-02-21T00:15:38.325Z,10.50
2023-02-21T00:18:28.626Z,10.46
2023-02-21T00:21:19.244Z,10.40
2023-02-21T00:24:08.144Z,10.40
2023-02-21T00:26:58.460Z,10.40
2023-02-21T00:29:48.866Z,10.40
2023-02-21T00:32:39.302Z,10.36
2023-02-21T00:35:29.868Z,10.36
2023-02-21T00:38:20.366Z,10.30
2023-02-21T00:41:10.924Z,10.30
2023-02-21T00:44:01.582Z,10.30
2023-02-21T00:46:50.566Z,10.30
2023-02-21T00:49:40.824Z,10.30
2023-02-21T00:52:31.443Z,10.30
2023-02-21T00:55:19.968Z,10.32
2023-02-21T00:58:10.380Z,10.30
2023-02-21T01:01:00.931Z,10.30
2023-02-21T01:03:49.756Z,10.30
2023-02-21T01:06:42.556Z,10.30
2023-02-21T01:09:33.250Z,10.30
2023-02-21T01:12:24.060Z,10.30
2023-02-21T01:15:14.686Z,10.30
2023-02-21T01:18:05.355Z,10.26
2023-02-21T01:20:55.901Z,10.20
2023-02-21T01:23:44.782Z,10.20
2023-02-21T01:26:35.121Z,10.20
2023-02-21T01:29:25.924Z,10.20
2023-02-21T01:32:16.496Z,10.18
2023-02-21T01:35:06.988Z,10.14
2023-02-21T01:37:58.018Z,10.10
2023-02-21T01:40:48.595Z,10.10
2023-02-21T01:43:39.709Z,10.12
2023-02-21T01:46:32.100Z,10.10
2023-02-21T01:49:26.884Z,10.10
2023-02-21T01:52:19.178Z,10.10
2023-02-21T01:55:14.897Z,10.10
2023-02-21T01:58:06.469Z,10.10
2023-02-21T02:00:57.228Z,10.06
2023-02-21T02:03:48.220Z,10.00
2023-02-21T02:06:38.503Z,10.00
2023-02-21T02:09:40.570Z,10.00
2023-02-21T02:12:37.636Z,10.00
2023-02-21T02:15:32.978Z,9.90
2023-02-21T02:18:36.998Z,9.90
2023-02-21T02:21:49.257Z,9.90
2023-02-21T02:24:55.297Z,9.88
2023-02-21T02:27:55.163Z,9.80
2023-02-21T02:30:54.473Z,9.80
2023-02-21T02:34:08.104Z,9.80
2023-02-21T02:36:45.241Z,9.80
2023-02-21T02:39:27.970Z,9.80
2023-02-21T02:42:11.326Z,9.80
2023-02-21T02:44:51.641Z,9.80
2023-02-21T02:47:30.288Z,9.80
2023-02-21T02:50:05.251Z,9.80
2023-02-21T02:52:40.107Z,9.80
2023-02-21T02:55:37.611Z,9.80
2023-02-21T02:58:12.262Z,9.80
2023-02-21T03:00:55.230Z,9.80
2023-02-21T03:03:47.379Z,9.80
2023-02-21T03:06:32.955Z,9.80
2023-02-21T03:09:15.047Z,9.80
2023-02-21T03:11:57.535Z,9.80
2023-02-21T03:14:37.844Z,9.78
2023-02-21T03:17:14.872Z,9.80
2023-02-21T03:19:51.994Z,9.80
2023-02-21T03:22:30.855Z,9.80
2023-02-21T03:25:05.705Z,9.80
2023-02-21T03:27:40.649Z,9.80
2023-02-21T03:30:26.301Z,9.80
2023-02-21T03:33:00.238Z,9.80
2023-02-21T03:35:34.750Z,9.80
2023-02-21T03:38:07.856Z,9.80
2023-02-21T03:40:41.468Z,9.80
2023-02-21T03:43:14.581Z,9.80
2023-02-21T03:45:53.358Z,9.80
2023-02-21T03:48:31.873Z,9.82
2023-02-21T03:51:16.997Z,9.84
2023-02-21T03:53:50.152Z,9.84
2023-02-21T03:56:28.105Z,9.84
2023-02-21T03:59:20.949Z,9.82
2023-02-21T04:01:54.032Z,9.80
2023-02-21T04:04:27.794Z,9.80
2023-02-21T04:07:11.227Z,9.80
2023-02-21T04:09:44.783Z,9.80
2023-02-21T04:12:21.851Z,9.80
2023-02-21T04:14:56.675Z,9.80
2023-02-21T04:17:29.968Z,9.86
2023-02-21T04:20:04.600Z,9.86
2023-02-21T04:22:41.953Z,9.80
2023-02-21T04:25:16.193Z,9.90
2023-02-21T04:27:55.148Z,9.90
2023-02-21T04:30:28.150Z,9.90
2023-02-21T04:33:01.267Z,9.90
2023-02-21T04:35:34.452Z,9.90
2023-02-21T04:38:13.054Z,9.90
2023-02-21T04:40:46.450Z,9.90
2023-02-21T04:43:21.308Z,9.98
2023-02-21T04:45:54.337Z,10.00
2023-02-21T04:48:27.844Z,10.00
2023-02-21T04:51:14.746Z,10.00
2023-02-21T04:53:50.198Z,10.00
2023-02-21T04:56:27.683Z,10.00
2023-02-21T04:59:01.093Z,10.00
2023-02-21T05:01:35.102Z,10.00
2023-02-21T05:04:08.693Z,10.00
2023-02-21T05:06:41.690Z,10.00
2023-02-21T05:09:14.789Z,9.90
2023-02-21T05:11:47.814Z,9.88
2023-02-21T05:14:21.270Z,9.80
2023-02-21T05:16:54.649Z,9.74
2023-02-21T05:19:28.542Z,9.70
2023-02-21T05:22:07.335Z,9.68
2023-02-21T05:24:44.140Z,9.60
2023-02-21T05:27:17.555Z,9.60
2023-02-21T05:29:53.493Z,9.50
2023-02-21T05:32:29.796Z,9.50
2023-02-21T05:35:02.888Z,9.50
2023-02-21T05:37:36.088Z,9.50
2023-02-21T05:40:12.201Z,9.48
2023-02-21T05:42:45.600Z,9.46
2023-02-21T05:45:19.870Z,9.50
2023-02-21T05:47:56.473Z,9.50
2023-02-21T05:50:29.831Z,9.50
2023-02-21T05:53:03.426Z,9.56
2023-02-21T05:55:36.518Z,9.60
2023-02-21T05:58:09.742Z,9.60
2023-02-21T06:00:43.031Z,9.60
2023-02-21T06:03:16.074Z,9.70
2023-02-21T06:05:49.194Z,9.70
2023-02-21T06:08:22.269Z,9.72
2023-02-21T06:10:55.452Z,9.80
2023-02-21T06:13:28.510Z,9.80
2023-02-21T06:16:01.834Z,9.90
2023-02-21T06:18:34.909Z,9.90
2023-02-21T06:21:08.643Z,9.98
2023-02-21T06:23:41.722Z,10.00
2023-02-21T06:26:16.160Z,10.02
2023-02-21T06:28:49.388Z,10.10
2023-02-21T06:31:23.347Z,10.10
2023-02-21T06:33:56.508Z,10.10
2023-02-21T06:36:31.693Z,10.10
2023-02-21T06:39:04.989Z,10.10
2023-02-21T06:41:38.108Z,10.10
2023-02-21T06:44:11.287Z,10.10
2023-02-21T06:46:44.888Z,10.10
2023-02-21T06:49:18.091Z,10.10
2023-02-21T06:51:51.216Z,10.10
2023-02-21T06:54:25.343Z,10.10
2023-02-21T06:56:59.265Z,10.10
2023-02-21T06:59:32.756Z,10.10
2023-02-21T07:02:06.041Z,10.10
2023-02-21T07:04:39.017Z,10.10
2023-02-21T07:07:12.074Z,10.18
2023-02-21T07:09:45.240Z,10.30
2023-02-21T07:12:18.231Z,10.30
2023-02-21T07:14:51.278Z,10.30
2023-02-21T07:17:24.291Z,10.34
2023-02-21T07:19:57.351Z,10.40
2023-02-21T07:22:30.412Z,10.40
2023-02-21T07:25:03.646Z,10.50
2023-02-21T07:27:36.777Z,10.60
2023-02-21T07:30:11.969Z,10.60
2023-02-21T07:35:17.519Z,10.70
2023-02-21T07:37:50.526Z,10.70
2023-02-21T07:40:23.977Z,10.70
2023-02-21T07:42:57.005Z,10.70
2023-02-21T07:45:30.774Z,10.66
2023-02-21T07:48:03.957Z,10.58
2023-02-21T07:50:37.020Z,10.44
2023-02-21T07:53:11.315Z,10.40
2023-02-21T07:55:44.636Z,10.30
2023-02-21T07:58:19.664Z,10.30
2023-02-21T08:00:55.750Z,10.30
2023-02-21T08:03:28.868Z,10.30
2023-02-21T08:06:02.453Z,10.26
2023-02-21T08:08:35.481Z,10.20
2023-02-21T08:11:09.188Z,10.20
2023-02-21T08:13:42.170Z,10.20
2023-02-21T08:16:15.355Z,10.30
2023-02-21T08:18:50.909Z,10.30
2023-02-21T08:21:23.933Z,10.30
2023-02-21T08:23:58.372Z,10.40
2023-02-21T08:26:31.507Z,10.50
2023-02-21T08:29:05.045Z,10.60
2023-02-21T08:31:41.495Z,10.60
2023-02-21T08:34:15.451Z,10.80
2023-02-21T08:36:48.746Z,10.80
2023-02-21T08:39:21.753Z,10.80
2023-02-21T08:41:54.878Z,10.70
2023-02-21T08:44:27.864Z,10.60
2023-02-21T08:47:00.954Z,10.50
2023-02-21T08:49:34.015Z,10.40
2023-02-21T08:52:07.189Z,10.30
2023-02-21T08:54:40.289Z,10.40
2023-02-21T08:57:13.850Z,10.58
2023-02-21T08:59:47.531Z,11.38
2023-02-21T09:02:26.330Z,12.00
2023-02-21T09:04:59.750Z,11.94
2023-02-21T09:07:33.659Z,11.64
2023-02-21T09:10:10.456Z,11.40
2023-02-21T09:12:43.966Z,11.30
2023-02-21T09:15:19.437Z,11.10
2023-02-21T09:17:54.739Z,10.90
2023-02-21T09:20:29.177Z,10.80
2023-02-21T09:23:02.214Z,10.74
2023-02-21T09:25:35.354Z,10.70
2023-02-21T09:28:08.491Z,10.76
2023-02-21T09:30:41.748Z,10.80
2023-02-21T09:33:16.204Z,10.90
2023-02-21T09:35:51.052Z,11.00
2023-02-21T09:38:24.086Z,11.20
2023-02-21T09:41:02.893Z,11.30
2023-02-21T09:43:38.252Z,11.50
2023-02-21T09:46:16.486Z,11.70
2023-02-21T09:48:50.841Z,11.80
2023-02-21T09:51:25.288Z,12.00
2023-02-21T09:54:02.038Z,12.70
2023-02-21T09:56:40.195Z,13.00
2023-02-21T09:59:17.170Z,13.20
2023-02-21T10:02:04.746Z,13.66
2023-02-21T10:04:55.276Z,14.22
2023-02-21T10:07:42.566Z,16.00
2023-02-21T10:10:19.823Z,17.74
2023-02-21T10:12:59.855Z,18.72
2023-02-21T10:15:46.682Z,19.84
2023-02-21T10:18:34.906Z,19.80
2023-02-21T10:21:18.162Z,20.04
2023-02-21T10:23:58.000Z,20.62
2023-02-21T10:26:33.631Z,20.72
2023-02-21T10:29:13.420Z,21.24
2023-02-21T10:31:48.783Z,21.68
2023-02-21T10:34:28.646Z,21.60
2023-02-21T10:37:14.350Z,20.90
2023-02-21T10:39:54.453Z,20.60
2023-02-21T10:42:37.632Z,20.82
2023-02-21T10:45:13.378Z,21.10
2023-02-21T10:47:55.134Z,21.06
2023-02-21T10:50:45.398Z,19.82
2023-02-21T10:53:31.672Z,18.98
2023-02-21T10:56:28.395Z,17.72
2023-02-21T10:59:07.270Z,16.50
2023-02-21T11:01:46.257Z,15.68
2023-02-21T11:04:35.715Z,15.08
2023-02-21T11:07:12.361Z,14.50
2023-02-21T11:09:47.145Z,14.10
2023-02-21T11:12:31.297Z,13.94
2023-02-21T11:15:23.706Z,13.38
2023-02-21T11:18:13.608Z,13.10
2023-02-21T11:20:50.376Z,13.00
2023-02-21T11:23:31.667Z,12.80
2023-02-21T11:26:11.617Z,12.60
2023-02-21T11:28:46.466Z,12.88
2023-02-21T11:31:29.657Z,15.16
2023-02-21T11:34:07.279Z,16.16
2023-02-21T11:36:43.661Z,17.76
2023-02-21T11:39:28.037Z,18.02
2023-02-21T11:42:05.021Z,17.06
2023-02-21T11:44:40.665Z,16.22
2023-02-21T11:47:23.568Z,15.42
2023-02-21T11:50:03.058Z,14.90
2023-02-21T11:52:42.226Z,14.60
2023-02-21T11:55:21.891Z,14.20
2023-02-21T11:58:05.530Z,14.06
2023-02-21T12:01:01.963Z,14.10
2023-02-21T12:04:01.414Z,14.64
2023-02-21T12:06:43.625Z,14.50
2023-02-21T12:09:22.027Z,14.06
2023-02-21T12:12:11.644Z,13.70
2023-02-21T12:15:02.550Z,13.40
2023-02-21T12:18:06.811Z,13.20
2023-02-21T12:21:09.104Z,13.10
2023-02-21T12:23:54.373Z,13.00
2023-02-21T12:26:51.592Z,14.40
2023-02-21T12:29:47.377Z,14.80
2023-02-21T12:32:46.122Z,14.80
2023-02-21T12:36:12.543Z,14.40
2023-02-21T12:39:02.123Z,14.14
2023-02-21T12:42:07.218Z,14.56
2023-02-21T12:44:51.961Z,15.90
2023-02-21T12:47:32.026Z,16.72
2023-02-21T12:50:14.674Z,17.48
2023-02-21T12:52:58.532Z,17.30
2023-02-21T12:55:35.319Z,17.72
2023-02-21T12:58:16.438Z,19.20
2023-02-21T13:00:55.773Z,20.60
2023-02-21T13:03:43.719Z,20.28
2023-02-21T13:06:23.809Z,19.12
2023-02-21T13:09:12.720Z,18.14
2023-02-21T13:11:56.516Z,17.64
2023-02-21T13:14:35.513Z,17.40
2023-02-21T13:17:16.400Z,16.94
2023-02-21T13:19:54.747Z,16.36
2023-02-21T13:23:20.108Z,15.80
2023-02-21T13:26:41.722Z,15.14
2023-02-21T13:29:22.997Z,14.70
2023-02-21T13:32:03.999Z,14.50
2023-02-21T13:34:45.679Z,14.40
2023-02-21T13:37:23.755Z,14.40
2023-02-21T13:40:07.659Z,14.40
2023-02-21T13:42:42.021Z,14.40
2023-02-21T13:45:24.741Z,14.44
2023-02-21T13:48:29.177Z,14.40
2023-02-21T13:51:03.678Z,14.20
2023-02-21T13:54:10.361Z,14.00
2023-02-21T13:56:49.726Z,13.90
2023-02-21T13:59:39.202Z,13.98
2023-02-21T14:02:33.070Z,14.10
2023-02-21T14:05:11.054Z,14.30
2023-02-21T14:07:58.420Z,14.40
2023-02-21T14:10:47.944Z,14.50
2023-02-21T14:13:32.151Z,14.50
2023-02-21T14:16:18.666Z,14.40
2023-02-21T14:18:54.086Z,14.40
2023-02-21T14:21:35.326Z,14.50
2023-02-21T14:24:17.783Z,14.60
2023-02-21T14:26:56.967Z,14.60
2023-02-21T14:29:42.491Z,14.60
2023-02-21T14:32:34.911Z,14.50
2023-02-21T14:35:29.277Z,14.42
2023-02-21T14:38:08.843Z,14.20
2023-02-21T14:41:04.389Z,14.00
2023-02-21T14:43:58.995Z,13.80
2023-02-21T14:46:57.987Z,13.60
2023-02-21T14:50:22.483Z,13.34
2023-02-21T14:53:22.694Z,13.00
2023-02-21T14:56:26.343Z,12.80
2023-02-21T14:59:21.880Z,12.60
2023-02-21T15:02:18.673Z,12.40
2023-02-21T15:05:01.319Z,12.30
2023-02-21T15:07:57.998Z,12.20
2023-02-21T15:10:33.410Z,12.02
2023-02-21T15:13:07.661Z,12.00
2023-02-21T15:15:43.549Z,11.90
2023-02-21T15:18:28.507Z,11.90
2023-02-21T15:21:18.641Z,11.96
2023-02-21T15:24:04.092Z,12.00
2023-02-21T15:26:37.165Z,12.00
2023-02-21T15:29:13.717Z,12.00
2023-02-21T15:31:50.341Z,12.00
2023-02-21T15:34:27.822Z,11.90
2023-02-21T15:37:07.817Z,11.88
2023-02-21T15:39:44.047Z,11.80
2023-02-21T15:42:19.521Z,11.80
2023-02-21T15:44:57.654Z,11.80
2023-02-21T15:47:34.281Z,11.70
2023-02-21T15:50:13.104Z,11.70
2023-02-21T15:52:51.710Z,11.60
2023-02-21T15:55:41.518Z,11.60
2023-02-21T15:58:26.955Z,11.50
2023-02-21T16:01:11.741Z,11.40
2023-02-21T16:03:47.093Z,11.30
2023-02-21T16:06:29.312Z,11.20
2023-02-21T16:09:06.758Z,11.10
2023-02-21T16:11:53.015Z,11.00
2023-02-21T16:14:39.925Z,10.92
2023-02-21T16:17:28.538Z,10.80
2023-02-21T16:20:13.364Z,10.70
2023-02-21T16:26:03.842Z,10.50
2023-02-21T16:28:37.501Z,10.40
2023-02-21T16:31:16.689Z,10.30
2023-02-21T16:33:53.120Z,10.30
2023-02-21T16:36:29.020Z,10.20
2023-02-21T16:39:02.526Z,10.20
2023-02-21T16:41:35.610Z,10.20
2023-02-21T16:44:08.585Z,10.16
2023-02-21T16:46:42.017Z,10.10
2023-02-21T16:49:15.468Z,10.10
2023-02-21T16:51:48.591Z,10.00
2023-02-21T16:54:21.854Z,10.00
2023-02-21T16:56:56.286Z,9.92
2023-02-21T16:59:29.389Z,9.90
2023-02-21T17:02:05.010Z,9.90
2023-02-21T17:04:38.118Z,9.90
2023-02-21T17:07:11.950Z,9.90
2023-02-21T17:09:44.940Z,9.90
2023-02-21T17:12:18.218Z,9.80
2023-02-21T17:14:51.229Z,9.80
2023-02-21T17:17:24.283Z,9.70
2023-02-21T17:19:57.606Z,9.70
2023-02-21T17:22:30.569Z,9.60
2023-02-21T17:25:03.835Z,9.60
2023-02-21T17:27:37.138Z,9.60
2023-02-21T17:30:12.969Z,9.50
2023-02-21T17:32:47.168Z,9.50
2023-02-21T17:35:22.704Z,9.50
2023-02-21T17:37:55.888Z,9.40
2023-02-21T17:40:29.259Z,9.40
2023-02-21T17:43:07.820Z,9.30
2023-02-21T17:45:40.903Z,9.30
2023-02-21T17:48:13.949Z,9.20
2023-02-21T17:50:47.059Z,9.20
2023-02-21T17:53:20.183Z,9.10
2023-02-21T17:55:53.237Z,9.10
2023-02-21T17:58:26.167Z,9.10
2023-02-21T18:01:00.089Z,9.10
2023-02-21T18:03:33.117Z,9.08
2023-02-21T18:06:06.644Z,9.00
2023-02-21T18:08:39.699Z,9.00
2023-02-21T18:11:16.648Z,9.00
2023-02-21T18:13:49.952Z,9.00
2023-02-21T18:16:23.278Z,9.00
2023-02-21T18:18:56.405Z,9.00
2023-02-21T18:21:29.623Z,8.98
2023-02-21T18:24:02.871Z,8.90
2023-02-21T18:26:36.166Z,8.90
2023-02-21T18:29:10.120Z,8.90
2023-02-21T18:31:43.189Z,8.90
2023-02-21T18:34:16.280Z,8.86
2023-02-21T18:36:54.436Z,8.80
2023-02-21T18:39:28.649Z,8.80
2023-02-21T18:42:01.845Z,8.80
2023-02-21T18:44:35.723Z,8.80
2023-02-21T18:47:08.969Z,8.76
2023-02-21T18:49:44.173Z,8.70
2023-02-21T18:52:18.295Z,8.70
2023-02-21T18:54:52.566Z,8.70
2023-02-21T18:57:26.582Z,8.70
2023-02-21T19:00:00.116Z,8.62
2023-02-21T19:02:34.601Z,8.60
2023-02-21T19:05:09.798Z,8.60
2023-02-21T19:07:45.113Z,8.60
2023-02-21T19:10:22.540Z,8.60
2023-02-21T19:12:55.692Z,8.60
2023-02-21T19:15:29.487Z,8.52
2023-02-21T19:18:02.981Z,8.50
2023-02-21T19:20:37.030Z,8.50
2023-02-21T19:23:10.624Z,8.50
2023-02-21T19:25:43.824Z,8.50
2023-02-21T19:28:16.845Z,8.50
2023-02-21T19:30:49.935Z,8.50
2023-02-21T19:33:24.814Z,8.44
2023-02-21T19:35:57.867Z,8.40
2023-02-21T19:38:30.882Z,8.40
2023-02-21T19:41:05.492Z,8.30
2023-02-21T19:43:38.706Z,8.30
2023-02-21T19:46:21.956Z,8.22
2023-02-21T19:48:56.726Z,8.20
2023-02-21T19:51:32.723Z,8.20
2023-02-21T19:54:06.273Z,8.20
2023-02-21T19:56:39.641Z,8.10
2023-02-21T19:59:13.449Z,8.10
2023-02-21T20:01:46.773Z,8.10
2023-02-21T20:04:19.946Z,8.10
2023-02-21T20:06:53.042Z,8.10
2023-02-21T20:09:26.270Z,8.10
2023-02-21T20:11:59.515Z,8.10
2023-02-21T20:14:32.762Z,8.10
2023-02-21T20:17:05.921Z,8.10
2023-02-21T20:19:38.941Z,8.10
2023-02-21T20:22:12.003Z,8.10
2023-02-21T20:24:45.956Z,8.10
2023-02-21T20:27:19.443Z,8.10
2023-02-21T20:29:52.608Z,8.10
2023-02-21T20:32:26.081Z,8.10
2023-02-21T20:34:59.175Z,8.02
2023-02-21T20:37:32.744Z,8.00
2023-02-21T20:40:10.457Z,8.00
2023-02-21T20:42:44.157Z,8.00
2023-02-21T20:45:18.773Z,7.98
2023-02-21T20:47:52.410Z,7.92
2023-02-21T20:50:26.690Z,7.90
2023-02-21T20:52:59.682Z,7.90
2023-02-21T20:55:32.624Z,7.90
2023-02-21T20:58:06.015Z,7.90
2023-02-21T21:00:39.199Z,7.88
2023-02-21T21:03:15.366Z,7.80
2023-02-21T21:05:50.804Z,7.80
2023-02-21T21:08:23.994Z,7.80
2023-02-21T21:10:57.604Z,7.80
2023-02-21T21:13:30.697Z,7.80
2023-02-21T21:16:05.289Z,7.80
2023-02-21T21:18:38.539Z,7.80
2023-02-21T21:21:11.999Z,7.70
2023-02-21T21:23:45.190Z,7.70
2023-02-21T21:26:18.622Z,7.70
2023-02-21T21:28:52.330Z,7.70
2023-02-21T21:31:25.516Z,7.64
2023-02-21T21:33:58.613Z,7.60
2023-02-21T21:36:31.632Z,7.60
2023-02-21T21:39:05.123Z,7.60
2023-02-21T21:41:38.869Z,7.54
2023-02-21T21:44:12.505Z,7.50
2023-02-21T21:46:51.287Z,7.50
2023-02-21T21:49:27.296Z,7.50
2023-02-21T21:52:00.599Z,7.50
2023-02-21T21:54:36.359Z,7.42
2023-02-21T21:57:10.979Z,7.40
2023-02-21T21:59:44.371Z,7.40
2023-02-21T22:02:17.730Z,7.40
2023-02-21T22:04:53.496Z,7.40
2023-02-21T22:07:26.587Z,7.40
2023-02-21T22:09:59.691Z,7.36
2023-02-21T22:12:32.851Z,7.30
2023-02-21T22:15:06.764Z,7.30
2023-02-21T22:17:41.417Z,7.30
2023-02-21T22:20:19.428Z,7.30
2023-02-21T22:22:57.184Z,7.30
2023-02-21T22:25:32.167Z,7.30
2023-02-21T22:28:09.772Z,7.30
2023-02-21T22:30:43.378Z,7.30
2023-02-21T22:33:22.678Z,7.30
2023-02-21T22:35:55.735Z,7.30
2023-02-21T22:38:29.034Z,7.30
2023-02-21T22:41:02.043Z,7.30
2023-02-21T22:43:35.337Z,7.30
2023-02-21T22:46:08.757Z,7.30
2023-02-21T22:48:41.852Z,7.30
2023-02-21T22:51:16.644Z,7.20
2023-02-21T22:53:52.439Z,7.20
2023-02-21T22:56:28.668Z,7.20
2023-02-21T22:59:02.139Z,7.20
2023-02-21T23:01:35.472Z,7.20
2023-02-21T23:04:26.040Z,7.18
2023-02-21T23:07:01.345Z,7.10
2023-02-21T23:09:37.158Z,7.10
2023-02-21T23:12:13.323Z,7.10
2023-02-21T23:14:48.280Z,7.10
2023-02-21T23:17:21.269Z,7.10
2023-02-21T23:19:54.646Z,7.06
2023-02-21T23:22:28.032Z,7.00
2023-02-21T23:25:01.146Z,7.00
2023-02-21T23:27:34.146Z,6.94
2023-02-21T23:30:08.655Z,6.90
2023-02-21T23:32:41.742Z,6.90
2023-02-21T23:35:16.459Z,6.80
2023-02-21T23:37:53.415Z,6.80
2023-02-21T23:40:28.412Z,6.80
2023-02-21T23:43:01.392Z,6.70
2023-02-21T23:45:34.418Z,6.70
2023-02-21T23:48:09.445Z,6.60
2023-02-21T23:50:45.275Z,6.60
2023-02-21T23:53:22.804Z,6.50
2023-02-21T23:56:00.787Z,6.40
2023-02-21T23:58:34.488Z,6.40
